sensor_id;sensor_type;location;lat;lon;timestamp;P1;durP1;ratioP1;P2;durP2;ratioP2
68614;SDS011;55593;51.994;5.882;2024-01-25T00:00:57;40.28;;;6.10;;
68614;SDS011;55593;51.994;5.882;2024-01-25T00:03:26;38.00;;;7.25;;
68614;SDS011;55593;51.994;5.882;2024-01-25T00:05:55;39.58;;;7.35;;
68614;SDS011;55593;51.994;5.882;2024-01-25T00:08:25;36.38;;;6.93;;
68614;SDS011;55593;51.994;5.882;2024-01-25T00:10:55;42.92;;;9.38;;
68614;SDS011;55593;51.994;5.882;2024-01-25T00:13:26;37.65;;;6.75;;
68614;SDS011;55593;51.994;5.882;2024-01-25T00:15:56;35.00;;;6.03;;
68614;SDS011;55593;51.994;5.882;2024-01-25T00:18:25;40.85;;;8.27;;
68614;SDS011;55593;51.994;5.882;2024-01-25T00:20:55;32.10;;;5.40;;
68614;SDS011;55593;51.994;5.882;2024-01-25T00:23:25;37.30;;;8.32;;
68614;SDS011;55593;51.994;5.882;2024-01-25T00:25:55;37.25;;;6.63;;
68614;SDS011;55593;51.994;5.882;2024-01-25T00:28:28;43.42;;;8.18;;
68614;SDS011;55593;51.994;5.882;2024-01-25T00:30:59;34.83;;;6.25;;
68614;SDS011;55593;51.994;5.882;2024-01-25T00:33:28;34.03;;;6.53;;
68614;SDS011;55593;51.994;5.882;2024-01-25T00:35:58;37.50;;;6.95;;
68614;SDS011;55593;51.994;5.882;2024-01-25T00:38:27;40.22;;;7.43;;
68614;SDS011;55593;51.994;5.882;2024-01-25T00:40:57;26.58;;;5.13;;
68614;SDS011;55593;51.994;5.882;2024-01-25T00:43:29;40.47;;;6.00;;
68614;SDS011;55593;51.994;5.882;2024-01-25T00:45:59;44.60;;;6.65;;
68614;SDS011;55593;51.994;5.882;2024-01-25T00:48:29;45.13;;;7.75;;
68614;SDS011;55593;51.994;5.882;2024-01-25T00:50:58;39.72;;;8.15;;
68614;SDS011;55593;51.994;5.882;2024-01-25T00:53:28;28.75;;;5.50;;
68614;SDS011;55593;51.994;5.882;2024-01-25T00:55:59;37.28;;;8.32;;
68614;SDS011;55593;51.994;5.882;2024-01-25T00:58:31;48.47;;;7.70;;
68614;SDS011;55593;51.994;5.882;2024-01-25T01:01:01;38.35;;;7.65;;
68614;SDS011;55593;51.994;5.882;2024-01-25T01:03:31;44.35;;;7.32;;
68614;SDS011;55593;51.994;5.882;2024-01-25T01:06:00;41.55;;;6.55;;
68614;SDS011;55593;51.994;5.882;2024-01-25T01:08:30;37.50;;;6.78;;
68614;SDS011;55593;51.994;5.882;2024-01-25T01:10:59;37.80;;;8.02;;
68614;SDS011;55593;51.994;5.882;2024-01-25T01:13:31;35.47;;;5.95;;
68614;SDS011;55593;51.994;5.882;2024-01-25T01:16:00;34.60;;;5.85;;
68614;SDS011;55593;51.994;5.882;2024-01-25T01:18:30;34.03;;;5.55;;
68614;SDS011;55593;51.994;5.882;2024-01-25T01:20:59;40.85;;;6.30;;
68614;SDS011;55593;51.994;5.882;2024-01-25T01:23:28;33.05;;;6.22;;
68614;SDS011;55593;51.994;5.882;2024-01-25T01:25:57;35.35;;;6.25;;
68614;SDS011;55593;51.994;5.882;2024-01-25T01:28:26;26.20;;;5.07;;
68614;SDS011;55593;51.994;5.882;2024-01-25T01:30:58;34.72;;;5.65;;
68614;SDS011;55593;51.994;5.882;2024-01-25T01:33:28;35.03;;;6.63;;
68614;SDS011;55593;51.994;5.882;2024-01-25T01:35:57;43.65;;;5.63;;
68614;SDS011;55593;51.994;5.882;2024-01-25T01:38:26;35.60;;;7.57;;
68614;SDS011;55593;51.994;5.882;2024-01-25T01:40:55;44.03;;;6.55;;
68614;SDS011;55593;51.994;5.882;2024-01-25T01:43:24;41.28;;;7.05;;
68614;SDS011;55593;51.994;5.882;2024-01-25T01:45:53;34.78;;;5.13;;
68614;SDS011;55593;51.994;5.882;2024-01-25T01:48:29;37.00;;;6.03;;
68614;SDS011;55593;51.994;5.882;2024-01-25T01:50:58;29.70;;;5.45;;
68614;SDS011;55593;51.994;5.882;2024-01-25T01:53:27;30.55;;;6.32;;
68614;SDS011;55593;51.994;5.882;2024-01-25T01:55:56;37.75;;;6.68;;
68614;SDS011;55593;51.994;5.882;2024-01-25T01:58:26;31.05;;;5.72;;
68614;SDS011;55593;51.994;5.882;2024-01-25T02:00:55;28.30;;;5.40;;
68614;SDS011;55593;51.994;5.882;2024-01-25T02:03:27;34.50;;;5.75;;
68614;SDS011;55593;51.994;5.882;2024-01-25T02:05:57;49.72;;;6.60;;
68614;SDS011;55593;51.994;5.882;2024-01-25T02:08:28;33.28;;;5.90;;
68614;SDS011;55593;51.994;5.882;2024-01-25T02:10:57;33.40;;;6.57;;
68614;SDS011;55593;51.994;5.882;2024-01-25T02:13:26;40.70;;;7.20;;
68614;SDS011;55593;51.994;5.882;2024-01-25T02:15:55;41.55;;;7.20;;
68614;SDS011;55593;51.994;5.882;2024-01-25T02:18:24;29.42;;;5.65;;
68614;SDS011;55593;51.994;5.882;2024-01-25T02:20:56;30.15;;;5.88;;
68614;SDS011;55593;51.994;5.882;2024-01-25T02:23:28;36.60;;;5.60;;
68614;SDS011;55593;51.994;5.882;2024-01-25T02:25:57;32.85;;;7.50;;
68614;SDS011;55593;51.994;5.882;2024-01-25T02:28:26;36.38;;;9.00;;
68614;SDS011;55593;51.994;5.882;2024-01-25T02:30:56;47.90;;;8.32;;
68614;SDS011;55593;51.994;5.882;2024-01-25T02:33:25;37.35;;;7.07;;
68614;SDS011;55593;51.994;5.882;2024-01-25T02:35:54;33.47;;;6.65;;
68614;SDS011;55593;51.994;5.882;2024-01-25T02:38:24;42.75;;;8.20;;
68614;SDS011;55593;51.994;5.882;2024-01-25T02:40:55;34.05;;;6.47;;
68614;SDS011;55593;51.994;5.882;2024-01-25T02:43:25;25.77;;;5.68;;
68614;SDS011;55593;51.994;5.882;2024-01-25T02:45:54;40.00;;;6.18;;
68614;SDS011;55593;51.994;5.882;2024-01-25T02:48:23;34.95;;;5.78;;
68614;SDS011;55593;51.994;5.882;2024-01-25T02:50:52;36.40;;;6.25;;
68614;SDS011;55593;51.994;5.882;2024-01-25T02:53:21;43.13;;;7.80;;
68614;SDS011;55593;51.994;5.882;2024-01-25T02:55:50;30.30;;;5.85;;
68614;SDS011;55593;51.994;5.882;2024-01-25T02:58:22;32.80;;;5.38;;
68614;SDS011;55593;51.994;5.882;2024-01-25T03:00:51;46.42;;;7.78;;
68614;SDS011;55593;51.994;5.882;2024-01-25T03:03:20;40.05;;;7.53;;
68614;SDS011;55593;51.994;5.882;2024-01-25T03:05:49;41.95;;;7.88;;
68614;SDS011;55593;51.994;5.882;2024-01-25T03:08:19;40.28;;;8.25;;
68614;SDS011;55593;51.994;5.882;2024-01-25T03:10:49;40.42;;;7.80;;
68614;SDS011;55593;51.994;5.882;2024-01-25T03:13:18;31.50;;;5.85;;
68614;SDS011;55593;51.994;5.882;2024-01-25T03:15:49;32.80;;;6.43;;
68614;SDS011;55593;51.994;5.882;2024-01-25T03:18:18;37.90;;;7.25;;
68614;SDS011;55593;51.994;5.882;2024-01-25T03:20:48;35.72;;;6.38;;
68614;SDS011;55593;51.994;5.882;2024-01-25T03:23:17;31.98;;;6.60;;
68614;SDS011;55593;51.994;5.882;2024-01-25T03:25:46;42.95;;;6.63;;
68614;SDS011;55593;51.994;5.882;2024-01-25T03:28:15;43.17;;;6.80;;
68614;SDS011;55593;51.994;5.882;2024-01-25T03:30:45;34.15;;;6.93;;
68614;SDS011;55593;51.994;5.882;2024-01-25T03:33:16;31.95;;;6.05;;
68614;SDS011;55593;51.994;5.882;2024-01-25T03:35:45;50.05;;;7.20;;
68614;SDS011;55593;51.994;5.882;2024-01-25T03:38:14;39.47;;;6.70;;
68614;SDS011;55593;51.994;5.882;2024-01-25T03:40:44;33.55;;;6.30;;
68614;SDS011;55593;51.994;5.882;2024-01-25T03:43:13;33.40;;;6.13;;
68614;SDS011;55593;51.994;5.882;2024-01-25T03:45:42;36.42;;;6.35;;
68614;SDS011;55593;51.994;5.882;2024-01-25T03:48:11;43.25;;;7.38;;
68614;SDS011;55593;51.994;5.882;2024-01-25T03:50:43;33.50;;;5.40;;
68614;SDS011;55593;51.994;5.882;2024-01-25T03:53:12;42.67;;;7.00;;
68614;SDS011;55593;51.994;5.882;2024-01-25T03:55:41;35.17;;;6.88;;
68614;SDS011;55593;51.994;5.882;2024-01-25T03:58:10;31.35;;;7.72;;
68614;SDS011;55593;51.994;5.882;2024-01-25T04:00:39;36.90;;;6.93;;
68614;SDS011;55593;51.994;5.882;2024-01-25T04:03:09;32.53;;;6.35;;
68614;SDS011;55593;51.994;5.882;2024-01-25T04:05:39;38.60;;;6.38;;
68614;SDS011;55593;51.994;5.882;2024-01-25T04:08:11;41.17;;;6.13;;
68614;SDS011;55593;51.994;5.882;2024-01-25T04:10:40;37.72;;;6.00;;
68614;SDS011;55593;51.994;5.882;2024-01-25T04:13:09;44.03;;;7.25;;
68614;SDS011;55593;51.994;5.882;2024-01-25T04:15:38;42.45;;;6.97;;
68614;SDS011;55593;51.994;5.882;2024-01-25T04:18:07;44.83;;;7.85;;
68614;SDS011;55593;51.994;5.882;2024-01-25T04:20:36;41.50;;;6.25;;
68614;SDS011;55593;51.994;5.882;2024-01-25T04:23:05;39.33;;;8.07;;
68614;SDS011;55593;51.994;5.882;2024-01-25T04:25:37;43.72;;;6.20;;
68614;SDS011;55593;51.994;5.882;2024-01-25T04:28:06;37.97;;;7.35;;
68614;SDS011;55593;51.994;5.882;2024-01-25T04:30:35;53.65;;;7.75;;
68614;SDS011;55593;51.994;5.882;2024-01-25T04:33:04;41.17;;;6.38;;
68614;SDS011;55593;51.994;5.882;2024-01-25T04:35:34;35.90;;;6.53;;
68614;SDS011;55593;51.994;5.882;2024-01-25T04:38:03;43.28;;;8.38;;
68614;SDS011;55593;51.994;5.882;2024-01-25T04:40:32;31.58;;;6.93;;
68614;SDS011;55593;51.994;5.882;2024-01-25T04:43:04;41.80;;;9.90;;
68614;SDS011;55593;51.994;5.882;2024-01-25T04:45:33;29.77;;;5.65;;
68614;SDS011;55593;51.994;5.882;2024-01-25T04:48:02;48.75;;;8.00;;
68614;SDS011;55593;51.994;5.882;2024-01-25T04:50:32;39.50;;;7.28;;
68614;SDS011;55593;51.994;5.882;2024-01-25T04:53:01;33.22;;;5.88;;
68614;SDS011;55593;51.994;5.882;2024-01-25T04:55:30;36.38;;;6.80;;
68614;SDS011;55593;51.994;5.882;2024-01-25T04:57:59;37.15;;;7.03;;
68614;SDS011;55593;51.994;5.882;2024-01-25T05:00:31;42.92;;;6.90;;
68614;SDS011;55593;51.994;5.882;2024-01-25T05:03:01;35.03;;;6.47;;
68614;SDS011;55593;51.994;5.882;2024-01-25T05:05:30;48.70;;;7.80;;
68614;SDS011;55593;51.994;5.882;2024-01-25T05:07:59;36.22;;;7.20;;
68614;SDS011;55593;51.994;5.882;2024-01-25T05:10:28;33.40;;;6.00;;
68614;SDS011;55593;51.994;5.882;2024-01-25T05:12:57;56.95;;;9.25;;
68614;SDS011;55593;51.994;5.882;2024-01-25T05:15:27;50.63;;;9.15;;
68614;SDS011;55593;51.994;5.882;2024-01-25T05:17:58;30.70;;;6.75;;
68614;SDS011;55593;51.994;5.882;2024-01-25T05:20:27;36.78;;;6.35;;
68614;SDS011;55593;51.994;5.882;2024-01-25T05:22:58;35.67;;;7.10;;
68614;SDS011;55593;51.994;5.882;2024-01-25T05:25:28;41.28;;;6.80;;
68614;SDS011;55593;51.994;5.882;2024-01-25T05:27:58;30.63;;;6.38;;
68614;SDS011;55593;51.994;5.882;2024-01-25T05:30:27;32.92;;;7.65;;
68614;SDS011;55593;51.994;5.882;2024-01-25T05:32:59;26.55;;;6.38;;
68614;SDS011;55593;51.994;5.882;2024-01-25T05:35:28;45.08;;;8.90;;
68614;SDS011;55593;51.994;5.882;2024-01-25T05:37:59;39.78;;;8.40;;
68614;SDS011;55593;51.994;5.882;2024-01-25T05:40:28;41.40;;;8.43;;
68614;SDS011;55593;51.994;5.882;2024-01-25T05:42:57;43.03;;;8.15;;
68614;SDS011;55593;51.994;5.882;2024-01-25T05:45:26;44.78;;;8.27;;
68614;SDS011;55593;51.994;5.882;2024-01-25T05:47:56;41.30;;;9.07;;
68614;SDS011;55593;51.994;5.882;2024-01-25T05:50:28;48.35;;;8.60;;
68614;SDS011;55593;51.994;5.882;2024-01-25T05:52:57;39.17;;;8.25;;
68614;SDS011;55593;51.994;5.882;2024-01-25T05:55:26;38.08;;;8.15;;
68614;SDS011;55593;51.994;5.882;2024-01-25T05:57:55;36.17;;;8.02;;
68614;SDS011;55593;51.994;5.882;2024-01-25T06:00:24;29.83;;;6.68;;
68614;SDS011;55593;51.994;5.882;2024-01-25T06:02:54;32.67;;;7.13;;
68614;SDS011;55593;51.994;5.882;2024-01-25T06:05:25;34.38;;;6.95;;
68614;SDS011;55593;51.994;5.882;2024-01-25T06:07:55;33.85;;;8.05;;
68614;SDS011;55593;51.994;5.882;2024-01-25T06:10:24;32.28;;;7.53;;
68614;SDS011;55593;51.994;5.882;2024-01-25T06:12:53;30.20;;;6.32;;
68614;SDS011;55593;51.994;5.882;2024-01-25T06:15:22;35.10;;;7.63;;
68614;SDS011;55593;51.994;5.882;2024-01-25T06:17:51;51.50;;;7.50;;
68614;SDS011;55593;51.994;5.882;2024-01-25T06:20:20;48.58;;;8.35;;
68614;SDS011;55593;51.994;5.882;2024-01-25T06:22:53;37.50;;;7.18;;
68614;SDS011;55593;51.994;5.882;2024-01-25T06:25:22;37.40;;;7.00;;
68614;SDS011;55593;51.994;5.882;2024-01-25T06:27:52;45.80;;;7.97;;
68614;SDS011;55593;51.994;5.882;2024-01-25T06:30:23;35.10;;;7.55;;
68614;SDS011;55593;51.994;5.882;2024-01-25T06:32:52;35.33;;;7.28;;
68614;SDS011;55593;51.994;5.882;2024-01-25T06:35:21;33.88;;;6.03;;
68614;SDS011;55593;51.994;5.882;2024-01-25T06:37:53;44.28;;;9.05;;
68614;SDS011;55593;51.994;5.882;2024-01-25T06:40:22;30.77;;;7.18;;
68614;SDS011;55593;51.994;5.882;2024-01-25T06:42:51;50.25;;;9.45;;
68614;SDS011;55593;51.994;5.882;2024-01-25T06:45:20;40.10;;;8.88;;
68614;SDS011;55593;51.994;5.882;2024-01-25T06:47:50;61.10;;;10.27;;
68614;SDS011;55593;51.994;5.882;2024-01-25T06:50:19;34.85;;;7.22;;
68614;SDS011;55593;51.994;5.882;2024-01-25T06:52:48;38.22;;;8.45;;
68614;SDS011;55593;51.994;5.882;2024-01-25T06:55:22;44.10;;;8.10;;
68614;SDS011;55593;51.994;5.882;2024-01-25T06:57:51;44.08;;;8.68;;
68614;SDS011;55593;51.994;5.882;2024-01-25T07:00:20;41.33;;;8.82;;
68614;SDS011;55593;51.994;5.882;2024-01-25T07:02:49;37.90;;;8.75;;
68614;SDS011;55593;51.994;5.882;2024-01-25T07:05:19;36.80;;;7.03;;
68614;SDS011;55593;51.994;5.882;2024-01-25T07:07:48;36.85;;;7.07;;
68614;SDS011;55593;51.994;5.882;2024-01-25T07:10:17;35.75;;;7.25;;
68614;SDS011;55593;51.994;5.882;2024-01-25T07:12:50;48.10;;;8.93;;
68614;SDS011;55593;51.994;5.882;2024-01-25T07:15:19;41.13;;;8.00;;
68614;SDS011;55593;51.994;5.882;2024-01-25T07:17:48;33.33;;;7.55;;
68614;SDS011;55593;51.994;5.882;2024-01-25T07:20:18;55.45;;;9.88;;
68614;SDS011;55593;51.994;5.882;2024-01-25T07:22:47;38.35;;;8.90;;
68614;SDS011;55593;51.994;5.882;2024-01-25T07:25:16;45.55;;;8.60;;
68614;SDS011;55593;51.994;5.882;2024-01-25T07:27:45;45.20;;;8.93;;
68614;SDS011;55593;51.994;5.882;2024-01-25T07:30:17;46.90;;;7.72;;
68614;SDS011;55593;51.994;5.882;2024-01-25T07:32:47;37.50;;;7.38;;
68614;SDS011;55593;51.994;5.882;2024-01-25T07:35:16;44.58;;;7.45;;
68614;SDS011;55593;51.994;5.882;2024-01-25T07:37:45;40.78;;;9.27;;
68614;SDS011;55593;51.994;5.882;2024-01-25T07:40:15;36.03;;;7.93;;
68614;SDS011;55593;51.994;5.882;2024-01-25T07:42:44;46.80;;;8.68;;
68614;SDS011;55593;51.994;5.882;2024-01-25T07:45:17;60.00;;;10.68;;
68614;SDS011;55593;51.994;5.882;2024-01-25T07:47:46;50.90;;;9.43;;
68614;SDS011;55593;51.994;5.882;2024-01-25T07:50:16;59.03;;;10.38;;
68614;SDS011;55593;51.994;5.882;2024-01-25T07:52:45;54.70;;;8.88;;
68614;SDS011;55593;51.994;5.882;2024-01-25T07:55:15;37.67;;;7.93;;
68614;SDS011;55593;51.994;5.882;2024-01-25T07:57:44;50.28;;;9.98;;
68614;SDS011;55593;51.994;5.882;2024-01-25T08:00:14;43.75;;;9.70;;
68614;SDS011;55593;51.994;5.882;2024-01-25T08:02:46;48.58;;;8.07;;
68614;SDS011;55593;51.994;5.882;2024-01-25T08:05:15;37.40;;;8.82;;
68614;SDS011;55593;51.994;5.882;2024-01-25T08:07:45;42.85;;;9.50;;
68614;SDS011;55593;51.994;5.882;2024-01-25T08:10:14;32.03;;;9.60;;
68614;SDS011;55593;51.994;5.882;2024-01-25T08:12:44;49.10;;;8.23;;
68614;SDS011;55593;51.994;5.882;2024-01-25T08:15:13;40.25;;;8.52;;
68614;SDS011;55593;51.994;5.882;2024-01-25T08:17:43;46.92;;;10.00;;
68614;SDS011;55593;51.994;5.882;2024-01-25T08:20:14;40.85;;;8.65;;
68614;SDS011;55593;51.994;5.882;2024-01-25T08:22:44;32.78;;;7.88;;
68614;SDS011;55593;51.994;5.882;2024-01-25T08:25:13;38.33;;;7.97;;
68614;SDS011;55593;51.994;5.882;2024-01-25T08:27:42;36.75;;;8.65;;
68614;SDS011;55593;51.994;5.882;2024-01-25T08:30:11;44.80;;;10.10;;
68614;SDS011;55593;51.994;5.882;2024-01-25T08:32:41;36.58;;;7.60;;
68614;SDS011;55593;51.994;5.882;2024-01-25T08:35:13;51.58;;;10.40;;
68614;SDS011;55593;51.994;5.882;2024-01-25T08:37:42;49.05;;;11.05;;
68614;SDS011;55593;51.994;5.882;2024-01-25T08:40:11;42.53;;;9.27;;
68614;SDS011;55593;51.994;5.882;2024-01-25T08:42:41;42.97;;;9.38;;
68614;SDS011;55593;51.994;5.882;2024-01-25T08:45:10;39.85;;;8.45;;
68614;SDS011;55593;51.994;5.882;2024-01-25T08:47:39;49.60;;;8.43;;
68614;SDS011;55593;51.994;5.882;2024-01-25T08:50:12;42.95;;;9.45;;
68614;SDS011;55593;51.994;5.882;2024-01-25T08:52:42;28.85;;;7.60;;
68614;SDS011;55593;51.994;5.882;2024-01-25T08:55:11;35.47;;;9.18;;
68614;SDS011;55593;51.994;5.882;2024-01-25T08:57:40;49.10;;;10.20;;
68614;SDS011;55593;51.994;5.882;2024-01-25T09:00:09;48.80;;;9.88;;
68614;SDS011;55593;51.994;5.882;2024-01-25T09:02:39;53.28;;;9.85;;
68614;SDS011;55593;51.994;5.882;2024-01-25T09:05:08;42.63;;;8.73;;
68614;SDS011;55593;51.994;5.882;2024-01-25T09:07:40;55.63;;;10.05;;
68614;SDS011;55593;51.994;5.882;2024-01-25T09:10:09;35.53;;;10.38;;
68614;SDS011;55593;51.994;5.882;2024-01-25T09:12:38;44.42;;;10.57;;
68614;SDS011;55593;51.994;5.882;2024-01-25T09:15:08;54.50;;;10.05;;
68614;SDS011;55593;51.994;5.882;2024-01-25T09:17:38;69.05;;;10.43;;
68614;SDS011;55593;51.994;5.882;2024-01-25T09:20:07;50.40;;;9.50;;
68614;SDS011;55593;51.994;5.882;2024-01-25T09:22:40;60.20;;;10.13;;
68614;SDS011;55593;51.994;5.882;2024-01-25T09:25:09;43.15;;;9.25;;
68614;SDS011;55593;51.994;5.882;2024-01-25T09:27:42;47.65;;;10.25;;
68614;SDS011;55593;51.994;5.882;2024-01-25T09:30:11;44.35;;;9.73;;
68614;SDS011;55593;51.994;5.882;2024-01-25T09:32:41;58.08;;;12.10;;
68614;SDS011;55593;51.994;5.882;2024-01-25T09:35:10;54.13;;;11.30;;
68614;SDS011;55593;51.994;5.882;2024-01-25T09:37:43;42.05;;;8.90;;
68614;SDS011;55593;51.994;5.882;2024-01-25T09:40:12;49.25;;;10.32;;
68614;SDS011;55593;51.994;5.882;2024-01-25T09:42:41;45.55;;;9.70;;
68614;SDS011;55593;51.994;5.882;2024-01-25T09:45:10;58.85;;;10.38;;
68614;SDS011;55593;51.994;5.882;2024-01-25T09:47:40;51.67;;;10.30;;
68614;SDS011;55593;51.994;5.882;2024-01-25T09:50:09;37.72;;;9.10;;
68614;SDS011;55593;51.994;5.882;2024-01-25T09:52:38;56.15;;;9.88;;
68614;SDS011;55593;51.994;5.882;2024-01-25T09:55:11;54.90;;;10.30;;
68614;SDS011;55593;51.994;5.882;2024-01-25T10:00:14;45.67;;;12.00;;
68614;SDS011;55593;51.994;5.882;2024-01-25T10:02:44;55.47;;;12.25;;
68614;SDS011;55593;51.994;5.882;2024-01-25T10:05:13;54.65;;;9.80;;
68614;SDS011;55593;51.994;5.882;2024-01-25T10:07:43;46.70;;;9.32;;
68614;SDS011;55593;51.994;5.882;2024-01-25T10:10:15;51.53;;;10.68;;
68614;SDS011;55593;51.994;5.882;2024-01-25T10:12:44;50.78;;;11.23;;
68614;SDS011;55593;51.994;5.882;2024-01-25T10:15:13;47.53;;;11.10;;
68614;SDS011;55593;51.994;5.882;2024-01-25T10:17:43;50.72;;;12.15;;
68614;SDS011;55593;51.994;5.882;2024-01-25T10:20:13;44.92;;;11.65;;
68614;SDS011;55593;51.994;5.882;2024-01-25T10:22:43;49.60;;;10.88;;
68614;SDS011;55593;51.994;5.882;2024-01-25T10:25:15;37.38;;;10.15;;
68614;SDS011;55593;51.994;5.882;2024-01-25T10:27:44;53.50;;;9.55;;
68614;SDS011;55593;51.994;5.882;2024-01-25T10:30:14;50.30;;;11.35;;
68614;SDS011;55593;51.994;5.882;2024-01-25T10:32:43;43.72;;;9.88;;
68614;SDS011;55593;51.994;5.882;2024-01-25T10:35:14;50.20;;;11.35;;
68614;SDS011;55593;51.994;5.882;2024-01-25T10:37:43;39.13;;;11.05;;
68614;SDS011;55593;51.994;5.882;2024-01-25T10:40:16;42.33;;;10.48;;
68614;SDS011;55593;51.994;5.882;2024-01-25T10:42:46;56.60;;;10.52;;
68614;SDS011;55593;51.994;5.882;2024-01-25T10:45:15;49.45;;;10.27;;
68614;SDS011;55593;51.994;5.882;2024-01-25T10:47:47;57.92;;;10.40;;
68614;SDS011;55593;51.994;5.882;2024-01-25T10:50:17;40.42;;;8.77;;
68614;SDS011;55593;51.994;5.882;2024-01-25T10:52:46;54.33;;;10.85;;
68614;SDS011;55593;51.994;5.882;2024-01-25T10:55:18;45.28;;;10.63;;
68614;SDS011;55593;51.994;5.882;2024-01-25T10:57:48;46.20;;;9.20;;
68614;SDS011;55593;51.994;5.882;2024-01-25T11:00:17;51.20;;;11.23;;
68614;SDS011;55593;51.994;5.882;2024-01-25T11:02:46;51.67;;;10.55;;
68614;SDS011;55593;51.994;5.882;2024-01-25T11:05:16;40.63;;;9.93;;
68614;SDS011;55593;51.994;5.882;2024-01-25T11:07:46;45.38;;;11.20;;
68614;SDS011;55593;51.994;5.882;2024-01-25T11:10:19;45.75;;;10.60;;
68614;SDS011;55593;51.994;5.882;2024-01-25T11:12:49;44.53;;;9.73;;
68614;SDS011;55593;51.994;5.882;2024-01-25T11:15:20;53.05;;;11.52;;
68614;SDS011;55593;51.994;5.882;2024-01-25T11:17:50;51.53;;;10.98;;
68614;SDS011;55593;51.994;5.882;2024-01-25T11:20:21;42.15;;;9.25;;
68614;SDS011;55593;51.994;5.882;2024-01-25T11:22:56;53.28;;;11.68;;
68614;SDS011;55593;51.994;5.882;2024-01-25T11:25:29;47.00;;;9.75;;
68614;SDS011;55593;51.994;5.882;2024-01-25T11:28:00;53.80;;;12.07;;
68614;SDS011;55593;51.994;5.882;2024-01-25T11:30:33;53.60;;;12.52;;
68614;SDS011;55593;51.994;5.882;2024-01-25T11:33:04;62.00;;;13.73;;
68614;SDS011;55593;51.994;5.882;2024-01-25T11:35:34;57.53;;;13.93;;
68614;SDS011;55593;51.994;5.882;2024-01-25T11:38:04;45.95;;;10.65;;
68614;SDS011;55593;51.994;5.882;2024-01-25T11:40:36;53.70;;;11.20;;
68614;SDS011;55593;51.994;5.882;2024-01-25T11:43:05;58.40;;;13.32;;
68614;SDS011;55593;51.994;5.882;2024-01-25T11:45:39;55.33;;;11.68;;
68614;SDS011;55593;51.994;5.882;2024-01-25T11:48:09;52.28;;;13.57;;
68614;SDS011;55593;51.994;5.882;2024-01-25T11:50:38;46.75;;;11.98;;
68614;SDS011;55593;51.994;5.882;2024-01-25T11:53:07;62.38;;;14.13;;
68614;SDS011;55593;51.994;5.882;2024-01-25T11:55:39;51.05;;;13.48;;
68614;SDS011;55593;51.994;5.882;2024-01-25T11:58:08;52.42;;;12.35;;
68614;SDS011;55593;51.994;5.882;2024-01-25T12:00:37;53.72;;;12.85;;
68614;SDS011;55593;51.994;5.882;2024-01-25T12:03:06;43.13;;;12.13;;
68614;SDS011;55593;51.994;5.882;2024-01-25T12:05:36;53.90;;;13.27;;
68614;SDS011;55593;51.994;5.882;2024-01-25T12:08:08;52.38;;;14.18;;
68614;SDS011;55593;51.994;5.882;2024-01-25T12:10:40;60.38;;;12.38;;
68614;SDS011;55593;51.994;5.882;2024-01-25T12:13:09;53.72;;;14.05;;
68614;SDS011;55593;51.994;5.882;2024-01-25T12:15:38;52.80;;;13.25;;
68614;SDS011;55593;51.994;5.882;2024-01-25T12:18:07;48.35;;;12.88;;
68614;SDS011;55593;51.994;5.882;2024-01-25T12:20:36;56.20;;;13.00;;
68614;SDS011;55593;51.994;5.882;2024-01-25T12:23:06;38.00;;;12.55;;
68614;SDS011;55593;51.994;5.882;2024-01-25T12:25:41;45.85;;;13.13;;
68614;SDS011;55593;51.994;5.882;2024-01-25T12:28:10;46.42;;;12.70;;
68614;SDS011;55593;51.994;5.882;2024-01-25T12:30:39;60.30;;;15.68;;
68614;SDS011;55593;51.994;5.882;2024-01-25T12:33:08;58.15;;;15.73;;
68614;SDS011;55593;51.994;5.882;2024-01-25T12:35:38;56.38;;;12.88;;
68614;SDS011;55593;51.994;5.882;2024-01-25T12:38:07;52.85;;;13.55;;
68614;SDS011;55593;51.994;5.882;2024-01-25T12:40:36;63.58;;;15.88;;
68614;SDS011;55593;51.994;5.882;2024-01-25T12:43:08;55.17;;;15.35;;
68614;SDS011;55593;51.994;5.882;2024-01-25T12:45:38;45.90;;;13.10;;
68614;SDS011;55593;51.994;5.882;2024-01-25T12:48:07;51.90;;;13.38;;
68614;SDS011;55593;51.994;5.882;2024-01-25T12:50:37;55.63;;;12.65;;
68614;SDS011;55593;51.994;5.882;2024-01-25T12:53:06;59.65;;;13.63;;
68614;SDS011;55593;51.994;5.882;2024-01-25T12:55:35;61.10;;;13.27;;
68614;SDS011;55593;51.994;5.882;2024-01-25T12:58:05;45.72;;;12.10;;
68614;SDS011;55593;51.994;5.882;2024-01-25T13:00:36;51.25;;;12.07;;
68614;SDS011;55593;51.994;5.882;2024-01-25T13:03:06;55.83;;;13.30;;
68614;SDS011;55593;51.994;5.882;2024-01-25T13:05:35;58.30;;;12.57;;
68614;SDS011;55593;51.994;5.882;2024-01-25T13:08:05;54.45;;;13.45;;
68614;SDS011;55593;51.994;5.882;2024-01-25T13:10:35;58.08;;;12.93;;
68614;SDS011;55593;51.994;5.882;2024-01-25T13:13:04;57.63;;;13.18;;
68614;SDS011;55593;51.994;5.882;2024-01-25T13:15:36;50.10;;;11.30;;
68614;SDS011;55593;51.994;5.882;2024-01-25T13:18:05;52.97;;;12.02;;
68614;SDS011;55593;51.994;5.882;2024-01-25T13:20:35;49.80;;;11.80;;
68614;SDS011;55593;51.994;5.882;2024-01-25T13:23:04;48.22;;;12.68;;
68614;SDS011;55593;51.994;5.882;2024-01-25T13:25:34;49.88;;;11.80;;
68614;SDS011;55593;51.994;5.882;2024-01-25T13:28:03;57.20;;;12.90;;
68614;SDS011;55593;51.994;5.882;2024-01-25T13:30:36;46.35;;;11.43;;
68614;SDS011;55593;51.994;5.882;2024-01-25T13:33:05;51.65;;;12.45;;
68614;SDS011;55593;51.994;5.882;2024-01-25T13:35:34;56.63;;;12.93;;
68614;SDS011;55593;51.994;5.882;2024-01-25T13:38:03;40.40;;;11.05;;
68614;SDS011;55593;51.994;5.882;2024-01-25T13:40:33;54.70;;;12.30;;
68614;SDS011;55593;51.994;5.882;2024-01-25T13:43:02;50.47;;;12.98;;
68614;SDS011;55593;51.994;5.882;2024-01-25T13:45:31;53.55;;;12.90;;
68614;SDS011;55593;51.994;5.882;2024-01-25T13:48:03;53.58;;;13.82;;
68614;SDS011;55593;51.994;5.882;2024-01-25T13:50:33;53.15;;;14.55;;
68614;SDS011;55593;51.994;5.882;2024-01-25T13:53:02;45.42;;;13.85;;
68614;SDS011;55593;51.994;5.882;2024-01-25T13:55:31;64.50;;;13.93;;
68614;SDS011;55593;51.994;5.882;2024-01-25T13:58:01;51.55;;;15.02;;
68614;SDS011;55593;51.994;5.882;2024-01-25T14:00:30;63.67;;;16.70;;
68614;SDS011;55593;51.994;5.882;2024-01-25T14:02:59;76.65;;;24.00;;
68614;SDS011;55593;51.994;5.882;2024-01-25T14:05:31;56.58;;;18.15;;
68614;SDS011;55593;51.994;5.882;2024-01-25T14:08:01;62.88;;;21.00;;
68614;SDS011;55593;51.994;5.882;2024-01-25T14:10:30;67.07;;;20.98;;
68614;SDS011;55593;51.994;5.882;2024-01-25T14:13:00;53.20;;;18.15;;
68614;SDS011;55593;51.994;5.882;2024-01-25T14:15:29;62.20;;;17.42;;
68614;SDS011;55593;51.994;5.882;2024-01-25T14:17:59;59.15;;;18.83;;
68614;SDS011;55593;51.994;5.882;2024-01-25T14:20:30;57.95;;;18.90;;
68614;SDS011;55593;51.994;5.882;2024-01-25T14:23:00;52.22;;;16.80;;
68614;SDS011;55593;51.994;5.882;2024-01-25T14:25:29;55.47;;;19.20;;
68614;SDS011;55593;51.994;5.882;2024-01-25T14:27:58;64.20;;;17.70;;
68614;SDS011;55593;51.994;5.882;2024-01-25T14:30:27;69.07;;;22.40;;
68614;SDS011;55593;51.994;5.882;2024-01-25T14:32:56;64.35;;;20.15;;
68614;SDS011;55593;51.994;5.882;2024-01-25T14:35:25;62.85;;;21.40;;
68614;SDS011;55593;51.994;5.882;2024-01-25T14:37:59;62.08;;;21.83;;
68614;SDS011;55593;51.994;5.882;2024-01-25T14:40:28;86.13;;;25.60;;
68614;SDS011;55593;51.994;5.882;2024-01-25T14:42:57;68.35;;;24.67;;
68614;SDS011;55593;51.994;5.882;2024-01-25T14:45:27;54.88;;;24.63;;
68614;SDS011;55593;51.994;5.882;2024-01-25T14:47:57;59.85;;;23.42;;